Terminal Aerodrome Forecast
Issued by NWS Sterling, VA

Home | Current Version | Previous Version | Text Only | Print | Product List | Glossary On
Versions: 1 2 3 4 5 6 7 8 9 10 11 12 13 14 15 16 17
000
FTUS41 KLWX 291120
TAFMRB
TAF
KMRB 291120Z 2912/3012 VRB03KT 2SM -DZ BR OVC005
     FM291400 29008KT P6SM BKN025
     FM291500 29008KT P6SM BKN035
     FM291700 29011G19KT P6SM SCT200
     FM292300 27007KT P6SM FEW070
     FM300300 VRB03KT P6SM SCT250
     FM300600 00000KT 3SM BR FEW250=

USA.gov is the U.S. government's official web portal to all federal, state and local government web resources and services.